X  Sluiten METAR luchtvaart weer gegevens      EDDM Munich Airport
Temperatuur
-3°C Temperatuur
-5°C Dauwpunt
86% Vochtigheid



Wind
3 KM/U
2 MPH
1 M/S
2 KTS



Kalm
N
Huidig weer

Grotendeels bewolkt Grotendeels bewolkt
Luchtdruk 1035.92 (hPa) - 30.59 (inHg)
Zicht 6.2 (mijl) - 10 (km)
Vliegveld
Vliegveld code EDDM

Locatie : Munich Airport
Afstand: 73 (km)

Metar:
EDDM 060250Z AUTO VRB02KT 9999 BKN025 M03/M05 Q1036 NOSIG

Tijd: 06-02-2023 03:50 CET